Gila Bend, AZ

11:53 PM MST on December 05, 2016 (GMT -0700)
Gila Bend AF Aux AP, Gila Ben | | Change Station

Elev 883 ft 32.89 °N, 112.72 °W | Updated 55 minutes ago

Clear
Clear
52 °F
Feels Like 52 °F
N
10
Wind Variable Wind from SSE

Today
High -- | Low -- °F
--% Chance of Precip.
Yesterday
High -- | Low -- °F
Precip. -- in
Pressure 29.90 in
Visibility 10.0 miles
Clouds Clear
Dew Point 21 °F
Humidity 30%
Rainfall 0.00 in
Snow Depth Not available.
7:19 AM 5:24 PM
Waxing Crescent, 39% visible
METAR KGXF 060558Z AUTO 15009KT 10SM CLR 11/M06 A2991 RMK AO2 SLP125 T01091060 10182 20101 50003
Pressure 29.90 in
Visibility 10.0 miles
Clouds Clear
Dew Point 21 °F
Humidity 30%
Rainfall 0.00 in
Snow Depth Not available.
7:19 AM 5:24 PM
Waxing Crescent, 39% visible
METAR KGXF 060558Z AUTO 15009KT 10SM CLR 11/M06 A2991 RMK AO2 SLP125 T01091060 10182 20101 50003

10-Day Weather Forecast

Almanac

Astronomy

Dec. 05, 2016 Rise Set
Actual Time
Civil Twilight
Nautical Twilight
Astronomical Twilight
Moon
Length of Visible Light
Length of Day
Tomorrow will be .
, % of the Moon is Illuminated

Today's Extremes

State Highs State Lows

Community

WunderPhotos

Upload Photos

1,955,932 photos uploaded!

WunderBlog® & News

Nearby

Air Quality

  Air Quality AQ Index Pollutant
Not available.

Snow Depth

Station Depth Elevation

Earthquake Activity

City Distance Mag. Time & Date
Minimum magnitude displayed is 2.5.

Coastal Water Temperatures

Place Temperature

Stations

Nearby Weather Stations

Station Location Temp. Windchill Dew Point Humidity Wind Precip. Elev Updated Type
                   

Watches & Warnings

There are currently no watches in effect.